CheckWX is a tool to help pilots better visualize weather data.  It is not intended as a substitute for an official pre-flight weather briefing.

02:20:55 UTC

SARI TAF
Cataratas Del Iguazú International Airport
Puerto Iguazu, Argentina
TAF SARI 290500Z 2906/3006 05005KT CAVOK TX25/2918Z TN10/2910Z

May-29@
06:00 UTC

May-29 @ 06:00 UTC

May-30@
06:00 UTC

May-30 @ 06:00 UTC

TAF SARI 290500Z 2906/3006 05005KT CAVOK TX25/2918Z TN10/2910Z
Wind
  • 050° at 5 KTS
Cloud Levels
  • No significant clouds